Lakebay, WA (98349)

11:39 AM PDT on April 28, 2015 (GMT -0700)
Harstine Island | | Change Station
CLOSE
Current Station
Personal Weather Station
Location: Shelton, WA
Elevation: 39 ft
Nearby Weather Stations

Elev 39 ft 47.29 °N, 122.86 °W | Updated 0 second ago

Mostly Cloudy
Mostly Cloudy
60.6 °F
Feels Like 60.6 °F
N
3.0
Wind Variable Wind from WSW
Gusts 8.0 mph

Today
High -- | Low -- °F
--% Chance of Precip.
Yesterday
High -- | Low -- °F
Precip. -- in
5:59 AM 8:18 PM
Waxing Gibbous, 75% visible
Pressure 30.10 in
Visibility 10.0 miles
Clouds Few 1600 ft
Overcast 2100 ft
Dew Point 48 °F
Humidity 63%
Rainfall 0.00 in
Snow Depth Not available.
UV 2 out of 12
Pollen 8.30 out of 12
Air Quality Not available.
Flu Activity Regional
METAR KTIW 281753Z 22009KT 10SM FEW016 OVC021 13/09 A3010 RMK AO2 SLP192 T01330094 10144 20122 51016

More Conditions Fewer Conditions

Pressure 30.10 in
Visibility 10.0 miles
Clouds Few 1600 ft
Overcast 2100 ft
Dew Point 48 °F
Humidity 63%
Rainfall 0.00 in
Snow Depth Not available.
UV 2 out of 12
Pollen 8.30 out of 12
Air Quality Not available.
Flu Activity Regional
METAR KTIW 281753Z 22009KT 10SM FEW016 OVC021 13/09 A3010 RMK AO2 SLP192 T01330094 10144 20122 51016

More Conditions Fewer Conditions

10-Day Weather Forecast

Almanac

Astronomy

Apr. 28, 2015 Rise Set
Actual Time
Civil Twilight
Nautical Twilight
Astronomical Twilight
Moon
Length of Visible Light
Length of Day
Tomorrow will be .
, % of the Moon is Illuminated

Today's Extremes

State Highs State Lows

Community

WunderPhotos

Upload Photos

1,817,723 photos uploaded!

WunderBlogs® & News

Nearby

Air Quality

  Air Quality AQ Index Pollutant
Not available.

Snow Depth

Station Depth Elevation

Earthquake Activity

City Distance Mag. Time & Date
Minimum magnitude displayed is 2.5.

Coastal Water Temperatures

Place Temperature

Stations

Nearby Weather Stations

Station Location Temp. Windchill Dew Point Humidity Wind Precip. Elev Updated Type